createdAt,value
2023-05-02T00:00:41.036Z,6.13
2023-05-02T00:03:08.198Z,5.63
2023-05-02T00:05:35.078Z,6.60
2023-05-02T00:08:01.532Z,6.18
2023-05-02T00:10:28.024Z,5.70
2023-05-02T00:12:54.356Z,7.80
2023-05-02T00:15:20.711Z,8.90
2023-05-02T00:17:47.444Z,5.55
2023-05-02T00:20:14.077Z,5.65
2023-05-02T00:22:40.460Z,4.85
2023-05-02T00:25:07.063Z,4.90
2023-05-02T00:27:33.455Z,4.43
2023-05-02T00:30:00.619Z,4.70
2023-05-02T00:32:27.563Z,4.72
2023-05-02T00:34:54.347Z,4.13
2023-05-02T00:37:21.217Z,3.67
2023-05-02T00:39:47.610Z,3.72
2023-05-02T00:42:13.937Z,3.63
2023-05-02T00:44:40.513Z,5.10
2023-05-02T00:47:06.984Z,4.82
2023-05-02T00:49:33.731Z,3.88
2023-05-02T00:52:00.051Z,3.80
2023-05-02T00:54:26.468Z,3.70
2023-05-02T00:56:52.859Z,3.67
2023-05-02T00:59:19.523Z,3.30
2023-05-02T01:01:45.894Z,2.60
2023-05-02T01:04:31.146Z,3.47
2023-05-02T01:07:20.866Z,3.20
2023-05-02T01:09:47.187Z,3.42
2023-05-02T01:12:21.907Z,3.15
2023-05-02T01:14:53.457Z,3.28
2023-05-02T01:17:20.309Z,2.75
2023-05-02T01:19:52.718Z,2.90
2023-05-02T01:22:20.090Z,2.63
2023-05-02T01:24:46.601Z,3.40
2023-05-02T01:27:31.110Z,3.33
2023-05-02T01:29:58.427Z,2.85
2023-05-02T01:32:26.445Z,3.30
2023-05-02T01:34:53.242Z,2.88
2023-05-02T01:37:20.231Z,3.25
2023-05-02T01:39:47.025Z,2.90
2023-05-02T01:42:14.098Z,3.47
2023-05-02T01:44:41.885Z,3.03
2023-05-02T01:47:09.577Z,3.22
2023-05-02T01:52:04.037Z,3.50
2023-05-02T01:54:31.324Z,3.00
2023-05-02T01:56:58.616Z,3.15
2023-05-02T01:59:26.399Z,3.20
2023-05-02T02:04:19.781Z,2.90
2023-05-02T02:06:48.345Z,2.78
2023-05-02T02:09:14.913Z,2.60
2023-05-02T02:11:47.172Z,2.60
2023-05-02T02:14:21.709Z,2.80
2023-05-02T02:16:49.097Z,3.10
2023-05-02T02:19:15.846Z,2.72
2023-05-02T02:21:43.438Z,3.17
2023-05-02T02:24:10.104Z,2.88
2023-05-02T02:26:36.588Z,2.95
2023-05-02T02:29:03.750Z,2.88
2023-05-02T02:31:30.897Z,2.85
2023-05-02T02:33:57.337Z,3.53
2023-05-02T02:36:47.024Z,3.17
2023-05-02T02:39:22.508Z,2.65
2023-05-02T02:41:51.916Z,3.60
2023-05-02T02:44:30.612Z,3.17
2023-05-02T02:47:09.201Z,3.22
2023-05-02T02:49:55.679Z,3.30
2023-05-02T02:52:28.314Z,3.30
2023-05-02T02:55:07.429Z,3.17
2023-05-02T02:57:39.628Z,3.45
2023-05-02T03:00:11.800Z,3.65
2023-05-02T03:02:40.607Z,3.08
2023-05-02T03:05:07.896Z,3.40
2023-05-02T03:07:34.558Z,3.38
2023-05-02T03:10:03.234Z,3.50
2023-05-02T03:12:29.646Z,4.00
2023-05-02T03:15:16.239Z,4.28
2023-05-02T03:17:42.624Z,4.70
2023-05-02T03:20:09.156Z,4.65
2023-05-02T03:22:35.503Z,3.67
2023-05-02T03:25:01.927Z,3.80
2023-05-02T03:27:28.289Z,3.85
2023-05-02T03:29:54.672Z,4.00
2023-05-02T03:32:21.118Z,4.00
2023-05-02T03:34:47.512Z,4.03
2023-05-02T03:37:13.976Z,3.78
2023-05-02T03:39:40.366Z,3.92
2023-05-02T03:42:06.724Z,3.63
2023-05-02T03:44:33.110Z,3.72
2023-05-02T03:46:59.598Z,3.95
2023-05-02T03:49:26.072Z,4.03
2023-05-02T03:51:52.439Z,3.55
2023-05-02T03:54:19.035Z,4.03
2023-05-02T03:56:45.446Z,4.43
2023-05-02T03:59:12.092Z,3.55
2023-05-02T04:01:38.723Z,4.28
2023-05-02T04:04:05.338Z,4.20
2023-05-02T04:06:32.550Z,4.32
2023-05-02T04:08:59.557Z,4.22
2023-05-02T04:11:26.829Z,3.85
2023-05-02T04:13:53.462Z,3.83
2023-05-02T04:16:19.988Z,3.63
2023-05-02T04:18:46.330Z,4.00
2023-05-02T04:21:12.685Z,3.90
2023-05-02T04:23:39.457Z,3.65
2023-05-02T04:26:06.597Z,3.78
2023-05-02T04:28:33.014Z,3.92
2023-05-02T04:30:59.462Z,4.53
2023-05-02T04:33:25.986Z,4.22
2023-05-02T04:35:53.032Z,3.92
2023-05-02T04:38:19.398Z,4.93
2023-05-02T04:40:46.031Z,4.47
2023-05-02T04:43:12.436Z,4.43
2023-05-02T04:45:38.768Z,4.85
2023-05-02T04:48:05.264Z,4.25
2023-05-02T04:50:32.349Z,4.00
2023-05-02T04:52:59.328Z,4.05
2023-05-02T04:55:25.716Z,4.15
2023-05-02T04:57:52.134Z,4.55
2023-05-02T05:00:18.551Z,3.70
2023-05-02T05:02:45.054Z,4.10
2023-05-02T05:05:11.501Z,4.28
2023-05-02T05:07:37.986Z,4.13
2023-05-02T05:10:04.496Z,4.35
2023-05-02T05:12:30.884Z,3.78
2023-05-02T05:14:57.285Z,4.05
2023-05-02T05:17:23.723Z,3.97
2023-05-02T05:19:50.073Z,4.25
2023-05-02T05:22:16.418Z,4.43
2023-05-02T05:24:42.738Z,4.78
2023-05-02T05:27:10.065Z,4.38
2023-05-02T05:29:36.466Z,5.15
2023-05-02T05:32:02.871Z,6.28
2023-05-02T05:34:29.290Z,7.82
2023-05-02T05:36:55.613Z,8.07
2023-05-02T05:39:22.088Z,8.05
2023-05-02T05:41:48.508Z,8.48
2023-05-02T05:44:14.980Z,8.95
2023-05-02T05:46:41.355Z,9.90
2023-05-02T05:49:07.801Z,10.48
2023-05-02T05:51:35.200Z,10.98
2023-05-02T05:54:02.128Z,11.90
2023-05-02T05:56:28.513Z,12.23
2023-05-02T05:58:55.011Z,13.20
2023-05-02T06:01:21.364Z,12.68
2023-05-02T06:03:48.268Z,12.82
2023-05-02T06:06:14.799Z,14.00
2023-05-02T06:08:41.148Z,13.80
2023-05-02T06:11:11.627Z,14.27
2023-05-02T06:13:37.955Z,14.30
2023-05-02T06:16:04.678Z,16.75
2023-05-02T06:18:31.174Z,15.48
2023-05-02T06:20:58.000Z,16.38
2023-05-02T06:23:24.369Z,15.80
2023-05-02T06:25:50.770Z,16.42
2023-05-02T06:28:17.121Z,16.35
2023-05-02T06:30:43.515Z,16.23
2023-05-02T06:33:09.984Z,16.48
2023-05-02T06:35:36.393Z,17.25
2023-05-02T06:38:02.713Z,16.17
2023-05-02T06:40:29.085Z,16.67
2023-05-02T06:42:55.735Z,16.55
2023-05-02T06:45:22.083Z,16.70
2023-05-02T06:47:48.457Z,17.15
2023-05-02T06:50:15.807Z,16.02
2023-05-02T06:52:42.186Z,15.35
2023-05-02T06:55:08.711Z,15.77
2023-05-02T06:57:35.154Z,15.27
2023-05-02T07:00:01.833Z,15.63
2023-05-02T07:02:28.506Z,15.83
2023-05-02T07:04:54.905Z,15.68
2023-05-02T07:07:22.109Z,16.25
2023-05-02T07:09:48.835Z,16.38
2023-05-02T07:12:15.249Z,16.63
2023-05-02T07:14:41.803Z,16.42
2023-05-02T07:17:08.452Z,16.60
2023-05-02T07:19:34.803Z,17.30
2023-05-02T07:22:01.133Z,17.63
2023-05-02T07:24:27.471Z,17.27
2023-05-02T07:26:53.844Z,17.08
2023-05-02T07:29:20.176Z,17.42
2023-05-02T07:31:46.557Z,17.88
2023-05-02T07:34:12.956Z,17.70
2023-05-02T07:36:39.365Z,17.67
2023-05-02T07:39:05.845Z,17.38
2023-05-02T07:41:32.222Z,17.15
2023-05-02T07:43:58.651Z,18.10
2023-05-02T07:46:25.075Z,18.13
2023-05-02T07:48:53.861Z,18.80
2023-05-02T07:51:21.584Z,18.80
2023-05-02T07:53:50.401Z,18.60
2023-05-02T07:56:16.758Z,19.20
2023-05-02T07:58:43.597Z,18.65
2023-05-02T08:01:10.450Z,18.90
2023-05-02T08:03:36.851Z,17.67
2023-05-02T08:06:03.932Z,18.85
2023-05-02T08:08:30.408Z,20.10
2023-05-02T08:10:56.772Z,19.90
2023-05-02T08:13:23.175Z,20.70
2023-05-02T08:15:49.623Z,21.50
2023-05-02T08:18:16.299Z,20.00
2023-05-02T08:20:43.240Z,20.73
2023-05-02T08:23:09.699Z,22.53
2023-05-02T08:25:36.423Z,22.45
2023-05-02T08:28:02.760Z,23.40
2023-05-02T08:30:29.152Z,22.17
2023-05-02T08:32:55.670Z,17.50
2023-05-02T08:35:22.023Z,17.92
2023-05-02T08:37:48.410Z,17.35
2023-05-02T08:40:21.922Z,17.38
2023-05-02T08:42:54.487Z,17.13
2023-05-02T08:45:22.485Z,16.52
2023-05-02T08:47:49.893Z,17.00
2023-05-02T08:50:17.746Z,16.30
2023-05-02T08:52:45.215Z,17.17
2023-05-02T08:55:12.513Z,16.67
2023-05-02T08:57:39.750Z,16.63
2023-05-02T09:00:06.746Z,15.57
2023-05-02T09:02:36.390Z,16.45
2023-05-02T09:05:06.596Z,14.98
2023-05-02T09:07:43.578Z,15.50
2023-05-02T09:10:10.063Z,14.88
2023-05-02T09:12:36.389Z,15.05
2023-05-02T09:15:09.544Z,13.30
2023-05-02T09:17:39.816Z,13.10
2023-05-02T09:20:06.733Z,12.52
2023-05-02T09:22:34.533Z,11.50
2023-05-02T09:27:27.649Z,10.60
2023-05-02T09:30:14.197Z,10.07
2023-05-02T09:32:47.041Z,10.90
2023-05-02T09:35:14.373Z,9.52
2023-05-02T09:37:40.785Z,9.32
2023-05-02T09:40:07.512Z,9.25
2023-05-02T09:42:33.962Z,9.97
2023-05-02T09:45:00.679Z,9.15
2023-05-02T09:47:27.554Z,9.35
2023-05-02T09:49:54.123Z,9.68
2023-05-02T09:52:21.725Z,10.38
2023-05-02T09:57:16.894Z,11.32
2023-05-02T09:59:53.740Z,11.02
2023-05-02T10:02:21.803Z,11.05
2023-05-02T10:04:49.102Z,11.75
2023-05-02T10:07:16.359Z,11.23
2023-05-02T10:09:44.370Z,11.63
2023-05-02T10:12:14.088Z,11.43
2023-05-02T10:14:43.602Z,11.50
2023-05-02T10:17:30.612Z,10.90
2023-05-02T10:19:59.003Z,11.30
2023-05-02T10:22:25.842Z,11.48
2023-05-02T10:24:52.932Z,11.50
2023-05-02T10:27:19.601Z,12.30
2023-05-02T10:29:46.295Z,11.57
2023-05-02T10:32:14.424Z,11.48
2023-05-02T10:34:41.593Z,11.38
2023-05-02T10:37:07.991Z,11.75
2023-05-02T10:39:34.451Z,11.35
2023-05-02T10:42:04.710Z,11.52
2023-05-02T10:44:40.783Z,10.60
2023-05-02T10:47:19.310Z,9.95
2023-05-02T10:49:52.719Z,10.13
2023-05-02T10:52:25.838Z,9.30
2023-05-02T10:54:52.447Z,9.80
2023-05-02T10:57:18.758Z,9.73
2023-05-02T10:59:46.491Z,9.45
2023-05-02T11:02:28.398Z,9.15
2023-05-02T11:05:02.037Z,9.30
2023-05-02T11:07:28.987Z,9.68
2023-05-02T11:10:16.024Z,9.40
2023-05-02T11:12:49.548Z,7.88
2023-05-02T11:15:38.389Z,8.43
2023-05-02T11:18:09.092Z,8.73
2023-05-02T11:20:36.302Z,8.27
2023-05-02T11:23:21.473Z,8.07
2023-05-02T11:25:48.680Z,8.02
2023-05-02T11:28:33.756Z,7.65
2023-05-02T11:31:00.451Z,7.68
2023-05-02T11:33:28.203Z,7.57
2023-05-02T11:35:56.895Z,7.05
2023-05-02T11:38:23.414Z,7.85
2023-05-02T11:40:51.088Z,6.90
2023-05-02T11:43:18.369Z,7.32
2023-05-02T11:45:45.487Z,7.13
2023-05-02T11:50:48.814Z,7.40
2023-05-02T11:53:17.322Z,6.70
2023-05-02T11:55:47.718Z,6.57
2023-05-02T11:58:15.825Z,5.88
2023-05-02T12:00:42.801Z,6.88
2023-05-02T12:05:35.511Z,7.80
2023-05-02T12:08:02.629Z,7.00
2023-05-02T12:13:04.126Z,7.07
2023-05-02T12:15:30.514Z,7.50
2023-05-02T12:17:56.918Z,7.10
2023-05-02T12:20:23.426Z,7.77
2023-05-02T12:22:50.016Z,7.85
2023-05-02T12:25:16.382Z,7.97
2023-05-02T12:27:42.705Z,8.00
2023-05-02T12:30:09.228Z,7.53
2023-05-02T12:32:36.887Z,8.00
2023-05-02T12:35:03.928Z,6.80
2023-05-02T12:37:30.329Z,7.80
2023-05-02T12:39:56.832Z,7.95
2023-05-02T12:42:24.123Z,7.83
2023-05-02T12:44:54.413Z,8.32
2023-05-02T12:47:22.539Z,7.75
2023-05-02T12:49:53.300Z,7.57
2023-05-02T12:52:42.484Z,8.18
2023-05-02T12:55:15.539Z,7.25
2023-05-02T12:57:41.943Z,6.85
2023-05-02T13:00:08.671Z,6.90
2023-05-02T13:02:35.036Z,7.25
2023-05-02T13:05:01.361Z,6.63
2023-05-02T13:07:27.687Z,7.00
2023-05-02T13:09:54.217Z,6.77
2023-05-02T13:12:20.599Z,6.60
2023-05-02T13:14:47.009Z,6.43
2023-05-02T13:17:13.453Z,5.47
2023-05-02T13:19:44.418Z,5.72
2023-05-02T13:22:13.936Z,5.57
2023-05-02T13:24:40.270Z,5.85
2023-05-02T13:27:06.592Z,5.32
2023-05-02T13:29:32.957Z,5.65
2023-05-02T13:31:59.293Z,4.65
2023-05-02T13:36:52.214Z,6.07
2023-05-02T13:39:19.003Z,6.10
2023-05-02T13:41:45.339Z,5.30
2023-05-02T13:44:11.667Z,5.78
2023-05-02T13:46:38.399Z,5.93
2023-05-02T13:49:04.951Z,5.43
2023-05-02T13:51:32.479Z,5.50
2023-05-02T13:53:59.072Z,5.70
2023-05-02T13:56:25.693Z,5.72
2023-05-02T13:58:52.133Z,6.30
2023-05-02T14:01:18.494Z,5.10
2023-05-02T14:03:45.259Z,5.15
2023-05-02T14:06:11.829Z,5.13
2023-05-02T14:08:38.270Z,5.22
2023-05-02T14:11:07.096Z,4.55
2023-05-02T14:13:33.825Z,4.95
2023-05-02T14:16:00.356Z,5.00
2023-05-02T14:20:53.081Z,5.43
2023-05-02T14:23:19.454Z,4.88
2023-05-02T14:25:45.843Z,4.82
2023-05-02T14:28:12.201Z,5.43
2023-05-02T14:30:38.648Z,5.70
2023-05-02T14:33:05.710Z,5.75
2023-05-02T14:35:32.206Z,5.85
2023-05-02T14:37:58.525Z,5.05
2023-05-02T14:40:24.881Z,5.55
2023-05-02T14:42:51.227Z,5.22
2023-05-02T14:45:17.766Z,4.80
2023-05-02T14:47:44.120Z,5.45
2023-05-02T14:50:10.986Z,5.25
2023-05-02T14:52:37.395Z,4.53
2023-05-02T14:55:04.217Z,5.00
2023-05-02T14:57:30.892Z,4.90
2023-05-02T14:59:57.328Z,4.80
2023-05-02T15:02:23.804Z,4.90
2023-05-02T15:04:50.416Z,5.03
2023-05-02T15:07:17.165Z,4.78
2023-05-02T15:09:44.807Z,4.40
2023-05-02T15:12:11.272Z,3.90
2023-05-02T15:14:37.660Z,4.60
2023-05-02T15:17:04.039Z,4.60
2023-05-02T15:19:30.782Z,4.13
2023-05-02T15:22:00.162Z,4.28
2023-05-02T15:24:26.849Z,4.32
2023-05-02T15:26:53.392Z,5.20
2023-05-02T15:31:46.239Z,4.82
2023-05-02T15:34:12.822Z,5.13
2023-05-02T15:36:39.240Z,5.25
2023-05-02T15:39:05.857Z,4.38
2023-05-02T15:41:32.388Z,4.70
2023-05-02T15:43:59.151Z,4.97
2023-05-02T15:46:25.914Z,4.28
2023-05-02T15:48:52.401Z,4.10
2023-05-02T15:51:18.831Z,3.78
2023-05-02T15:53:49.676Z,4.60
2023-05-02T15:56:16.632Z,5.15
2023-05-02T15:58:43.198Z,4.80
2023-05-02T16:01:09.639Z,5.75
2023-05-02T16:03:36.562Z,4.97
2023-05-02T16:06:05.572Z,5.85
2023-05-02T16:08:31.958Z,5.20
2023-05-02T16:11:01.204Z,5.20
2023-05-02T16:13:27.887Z,4.65
2023-05-02T16:15:55.609Z,5.07
2023-05-02T16:18:27.885Z,4.68
2023-05-02T16:20:57.472Z,4.97
2023-05-02T16:23:24.258Z,4.80
2023-05-02T16:25:56.297Z,5.40
2023-05-02T16:28:22.674Z,5.68
2023-05-02T16:30:49.004Z,5.05
2023-05-02T16:33:15.466Z,4.95
2023-05-02T16:35:41.890Z,5.87
2023-05-02T16:38:08.214Z,5.85
2023-05-02T16:40:34.590Z,5.15
2023-05-02T16:43:01.398Z,5.72
2023-05-02T16:45:27.796Z,4.80
2023-05-02T16:47:54.140Z,5.15
2023-05-02T16:50:20.533Z,5.63
2023-05-02T16:52:46.857Z,5.60
2023-05-02T16:55:13.253Z,4.93
2023-05-02T16:57:39.749Z,4.47
2023-05-02T17:00:08.239Z,5.10
2023-05-02T17:02:34.707Z,4.82
2023-05-02T17:05:01.156Z,4.70
2023-05-02T17:07:27.550Z,5.03
2023-05-02T17:09:53.882Z,5.13
2023-05-02T17:12:22.888Z,4.50
2023-05-02T17:14:49.597Z,4.97
2023-05-02T17:17:18.814Z,4.93
2023-05-02T17:19:45.626Z,4.57
2023-05-02T17:22:12.421Z,4.75
2023-05-02T17:24:38.916Z,5.13
2023-05-02T17:27:06.512Z,4.35
2023-05-02T17:29:33.839Z,5.20
2023-05-02T17:32:01.657Z,5.25
2023-05-02T17:34:30.273Z,5.18
2023-05-02T17:36:56.634Z,5.75
2023-05-02T17:39:23.149Z,6.00
2023-05-02T17:41:49.504Z,5.60
2023-05-02T17:44:16.364Z,5.45
2023-05-02T17:46:43.216Z,5.78
2023-05-02T17:49:09.846Z,6.03
2023-05-02T17:51:36.217Z,6.30
2023-05-02T17:54:02.708Z,6.95
2023-05-02T17:56:30.042Z,6.35
2023-05-02T17:58:56.573Z,7.20
2023-05-02T18:01:23.094Z,7.25
2023-05-02T18:03:50.024Z,7.60
2023-05-02T18:06:16.913Z,7.18
2023-05-02T18:08:44.776Z,8.85
2023-05-02T18:11:16.084Z,9.07
2023-05-02T18:13:43.554Z,9.45
2023-05-02T18:18:36.657Z,9.57
2023-05-02T18:21:03.358Z,8.93
2023-05-02T18:23:29.827Z,7.80
2023-05-02T18:25:56.191Z,8.38
2023-05-02T18:28:22.707Z,7.50
2023-05-02T18:30:49.051Z,8.88
2023-05-02T18:33:15.456Z,8.50
2023-05-02T18:35:48.761Z,7.43
2023-05-02T18:38:15.694Z,10.20
2023-05-02T18:40:42.867Z,8.65
2023-05-02T18:43:09.341Z,13.60
2023-05-02T18:45:36.112Z,14.20
2023-05-02T18:48:03.338Z,9.48
2023-05-02T18:50:29.823Z,11.43
2023-05-02T18:52:56.296Z,13.02
2023-05-02T18:55:25.264Z,9.98
2023-05-02T18:57:52.144Z,8.27
2023-05-02T19:00:20.330Z,8.00
2023-05-02T19:02:47.528Z,7.95
2023-05-02T19:05:14.554Z,7.22
2023-05-02T19:07:41.014Z,6.20
2023-05-02T19:10:07.508Z,6.25
2023-05-02T19:12:33.845Z,6.50
2023-05-02T19:15:00.679Z,6.47
2023-05-02T19:17:27.833Z,6.25
2023-05-02T19:19:55.624Z,6.22
2023-05-02T19:22:23.435Z,6.13
2023-05-02T19:24:50.806Z,6.20
2023-05-02T19:27:17.173Z,6.35
2023-05-02T19:29:43.610Z,6.00
2023-05-02T19:32:10.216Z,5.57
2023-05-02T19:34:36.947Z,6.45
2023-05-02T19:37:04.097Z,5.77
2023-05-02T19:39:31.413Z,6.30
2023-05-02T19:41:57.820Z,5.93
2023-05-02T19:44:24.158Z,5.72
2023-05-02T19:46:51.105Z,6.15
2023-05-02T19:49:17.669Z,6.20
2023-05-02T19:51:44.035Z,6.22
2023-05-02T19:54:10.423Z,6.85
2023-05-02T19:56:36.849Z,6.72
2023-05-02T19:59:03.395Z,12.30
2023-05-02T20:01:31.240Z,9.00
2023-05-02T20:03:58.116Z,10.82
2023-05-02T20:06:24.615Z,11.40
2023-05-02T20:08:52.445Z,12.05
2023-05-02T20:11:18.867Z,21.58
2023-05-02T20:13:45.868Z,20.83
2023-05-02T20:16:13.055Z,18.95
2023-05-02T20:18:39.471Z,12.52
2023-05-02T20:21:05.855Z,8.25
2023-05-02T20:23:32.172Z,7.72
2023-05-02T20:25:58.909Z,7.72
2023-05-02T20:28:25.809Z,7.50
2023-05-02T20:30:52.139Z,11.07
2023-05-02T20:33:18.813Z,12.57
2023-05-02T20:35:45.298Z,13.68
2023-05-02T20:38:12.036Z,15.27
2023-05-02T20:40:42.652Z,14.68
2023-05-02T20:43:09.063Z,15.35
2023-05-02T20:45:35.441Z,14.32
2023-05-02T20:48:01.875Z,13.15
2023-05-02T20:50:28.326Z,13.30
2023-05-02T20:52:55.284Z,12.43
2023-05-02T20:55:22.992Z,9.60
2023-05-02T21:00:22.431Z,6.90
2023-05-02T21:02:49.068Z,6.22
2023-05-02T21:05:15.694Z,6.68
2023-05-02T21:07:42.131Z,5.78
2023-05-02T21:10:08.925Z,6.53
2023-05-02T21:12:35.264Z,6.57
2023-05-02T21:15:01.600Z,7.03
2023-05-02T21:17:28.630Z,6.13
2023-05-02T21:19:56.073Z,6.25
2023-05-02T21:22:22.433Z,6.50
2023-05-02T21:24:50.186Z,6.68
2023-05-02T21:29:42.836Z,7.07
2023-05-02T21:32:09.237Z,6.25
2023-05-02T21:34:35.672Z,5.97
2023-05-02T21:37:02.062Z,5.80
2023-05-02T21:39:28.431Z,6.78
2023-05-02T21:41:54.835Z,6.18
2023-05-02T21:44:21.153Z,5.85
2023-05-02T21:46:47.666Z,6.32
2023-05-02T21:49:14.095Z,6.70
2023-05-02T21:51:40.661Z,6.40
2023-05-02T21:54:07.415Z,6.20
2023-05-02T21:56:33.760Z,6.22
2023-05-02T21:59:00.159Z,6.35
2023-05-02T22:01:26.706Z,6.03
2023-05-02T22:03:53.180Z,6.43
2023-05-02T22:06:19.557Z,6.10
2023-05-02T22:08:46.011Z,5.88
2023-05-02T22:11:12.431Z,6.53
2023-05-02T22:13:38.917Z,6.30
2023-05-02T22:16:05.439Z,6.45
2023-05-02T22:18:31.854Z,7.00
2023-05-02T22:20:58.650Z,6.68
2023-05-02T22:23:25.035Z,6.67
2023-05-02T22:25:51.459Z,6.35
2023-05-02T22:28:17.831Z,7.28
2023-05-02T22:30:44.168Z,7.03
2023-05-02T22:33:10.919Z,7.60
2023-05-02T22:35:37.777Z,7.78
2023-05-02T22:38:04.647Z,7.17
2023-05-02T22:40:31.461Z,7.37
2023-05-02T22:42:58.296Z,6.50
2023-05-02T22:45:24.782Z,6.70
2023-05-02T22:47:52.184Z,5.72
2023-05-02T22:50:19.818Z,5.10
2023-05-02T22:52:46.935Z,5.38
2023-05-02T22:55:13.346Z,5.13
2023-05-02T22:57:40.213Z,4.97
2023-05-02T23:00:07.618Z,5.50
2023-05-02T23:02:34.031Z,5.53
2023-05-02T23:05:00.883Z,5.20
2023-05-02T23:07:27.271Z,4.90
2023-05-02T23:09:53.725Z,5.07
2023-05-02T23:12:20.105Z,5.63
2023-05-02T23:14:46.638Z,5.50
2023-05-02T23:17:13.074Z,5.13
2023-05-02T23:19:39.476Z,5.50
2023-05-02T23:22:05.902Z,6.55
2023-05-02T23:24:32.587Z,5.55
2023-05-02T23:26:58.915Z,6.80
2023-05-02T23:29:25.719Z,6.60
2023-05-02T23:31:54.350Z,6.60
2023-05-02T23:34:21.522Z,6.47
2023-05-02T23:36:48.525Z,6.13
2023-05-02T23:39:16.229Z,6.55
2023-05-02T23:41:42.602Z,6.45
2023-05-02T23:44:08.945Z,6.30
2023-05-02T23:46:35.322Z,5.88
2023-05-02T23:49:01.710Z,5.85
2023-05-02T23:51:28.452Z,5.97
2023-05-02T23:53:54.926Z,6.38
2023-05-02T23:56:21.274Z,5.80
2023-05-02T23:58:47.697Z,5.90
